createdAt,value
2018-10-17T00:08:36.696Z,12.4
2018-10-17T00:23:51.168Z,12.3
2018-10-17T00:39:06.258Z,12.1
2018-10-17T00:54:21.340Z,11.8
2018-10-17T01:09:29.201Z,11.7
2018-10-17T01:24:51.221Z,11.5
2018-10-17T01:40:05.994Z,11.2
2018-10-17T01:55:20.761Z,11
2018-10-17T02:10:35.443Z,11
2018-10-17T02:25:49.415Z,11
2018-10-17T02:41:04.846Z,11
2018-10-17T02:56:19.580Z,11
2018-10-17T03:11:35.107Z,10.8
2018-10-17T03:26:40.860Z,10.9
2018-10-17T03:42:03.468Z,10.7
2018-10-17T03:57:18.116Z,10.7
2018-10-17T04:12:32.567Z,10.6
2018-10-17T04:27:47.164Z,10.4
2018-10-17T04:43:00.260Z,10.3
2018-10-17T04:58:16.021Z,10.4
2018-10-17T05:13:30.557Z,10.3
2018-10-17T05:28:44.943Z,10.2
2018-10-17T05:43:51.062Z,10.2
2018-10-17T05:59:13.907Z,10.2
2018-10-17T06:14:28.227Z,10.2
2018-10-17T06:29:42.671Z,10.3
2018-10-17T06:44:57.227Z,10.6
2018-10-17T07:00:11.776Z,10.8
2018-10-17T07:15:26.668Z,11
2018-10-17T07:30:41.305Z,11.5
2018-10-17T07:45:49.790Z,11.9
2018-10-17T08:01:11.519Z,12.6
2018-10-17T08:16:27.152Z,13.3
2018-10-17T08:31:42.837Z,14
2018-10-17T08:46:50.343Z,14.6
2018-10-17T09:02:15.514Z,15.5
2018-10-17T09:17:32.084Z,16.3
2018-10-17T09:32:49.092Z,17
2018-10-17T09:48:06.761Z,18.2
2018-10-17T10:03:22.233Z,18.6
2018-10-17T10:18:44.612Z,19
2018-10-17T10:34:02.372Z,19.5
2018-10-17T10:49:23.983Z,20
2018-10-17T11:04:42.310Z,20.5
2018-10-17T11:19:57.824Z,20.8
2018-10-17T11:35:24.761Z,21.2
2018-10-17T11:50:45.553Z,21.6
2018-10-17T12:06:07.531Z,21.8
2018-10-17T12:21:29.381Z,22.3
2018-10-17T12:36:37.497Z,22.5
2018-10-17T12:52:11.508Z,22.7
2018-10-17T13:07:37.018Z,22.9
2018-10-17T13:22:59.913Z,23.1
2018-10-17T13:38:22.491Z,23.1
2018-10-17T13:53:44.653Z,23.1
2018-10-17T14:08:52.441Z,23
2018-10-17T14:24:25.244Z,22.8
2018-10-17T14:39:52.183Z,22.7
2018-10-17T14:55:14.270Z,22.4
2018-10-17T15:10:36.111Z,22
2018-10-17T15:25:57.510Z,21.7
2018-10-17T15:41:05.045Z,21.1
2018-10-17T15:56:36.734Z,20.5
2018-10-17T16:11:58.378Z,20.1
2018-10-17T16:27:17.020Z,19.6
2018-10-17T16:42:35.548Z,19.1
2018-10-17T16:57:39.477Z,18.7
2018-10-17T17:13:10.369Z,18.4
2018-10-17T17:28:29.484Z,18.1
2018-10-17T17:43:46.856Z,17.7
2018-10-17T17:59:04.156Z,17.3
2018-10-17T18:14:10.384Z,17
2018-10-17T18:29:38.256Z,16.6
2018-10-17T18:44:55.112Z,16.3
2018-10-17T19:00:11.974Z,16
2018-10-17T19:15:28.541Z,15.7
2018-10-17T19:30:37.951Z,15.4
2018-10-17T19:46:01.411Z,15.1
2018-10-17T20:01:17.700Z,14.7
2018-10-17T20:16:33.664Z,14.5
2018-10-17T20:31:49.701Z,14.2
2018-10-17T20:47:03.038Z,14.1
2018-10-17T21:02:21.630Z,13.9
2018-10-17T21:17:37.342Z,13.7
2018-10-17T21:32:53.158Z,14.1
2018-10-17T21:47:57.629Z,14
2018-10-17T22:03:26.012Z,13.8
2018-10-17T22:18:41.879Z,13.5
2018-10-17T22:33:57.268Z,12.9
2018-10-17T22:49:12.605Z,12.5
2018-10-17T23:04:20.088Z,12.4
2018-10-17T23:19:43.026Z,12.2
2018-10-17T23:34:58.112Z,12
2018-10-17T23:50:13.240Z,11.7
